sensor_id;sensor_type;location;lat;lon;timestamp;P1;P2;P0
57798;PMS7003;43626;53.866;30.298;2022-12-07T00:04:50;30.2;24.6;15.4
57798;PMS7003;43626;53.866;30.298;2022-12-07T00:09:18;39.2;32;19
57798;PMS7003;43626;53.866;30.298;2022-12-07T00:14:26;38;32.6;20
57798;PMS7003;43626;53.866;30.298;2022-12-07T00:19:38;42;32.8;18.8
57798;PMS7003;43626;53.866;30.298;2022-12-07T00:24:48;40;34;21
57798;PMS7003;43626;53.866;30.298;2022-12-07T00:29:50;43;35.4;21.2
57798;PMS7003;43626;53.866;30.298;2022-12-07T00:34:26;41.8;35.4;20.4
57798;PMS7003;43626;53.866;30.298;2022-12-07T00:39:24;41.4;33.8;21.4
57798;PMS7003;43626;53.866;30.298;2022-12-07T00:44:26;46.4;36.4;21.8
57798;PMS7003;43626;53.866;30.298;2022-12-07T00:50:02;43.2;35.2;20
57798;PMS7003;43626;53.866;30.298;2022-12-07T00:54:34;48.4;39.4;24.8
57798;PMS7003;43626;53.866;30.298;2022-12-07T00:59:18;49;40;25.8
57798;PMS7003;43626;53.866;30.298;2022-12-07T01:04:36;44.2;36.8;21.8
57798;PMS7003;43626;53.866;30.298;2022-12-07T01:10:00;41.4;35.4;20.6
57798;PMS7003;43626;53.866;30.298;2022-12-07T01:14:41;38.8;31.8;18.6
57798;PMS7003;43626;53.866;30.298;2022-12-07T01:19:52;39.2;33.6;20.8
57798;PMS7003;43626;53.866;30.298;2022-12-07T01:24:18;35.8;29.2;17.6
57798;PMS7003;43626;53.866;30.298;2022-12-07T01:29:18;37.2;29.4;18.6
57798;PMS7003;43626;53.866;30.298;2022-12-07T01:34:40;39.4;33;19
57798;PMS7003;43626;53.866;30.298;2022-12-07T01:39:50;39.4;34;19.4
57798;PMS7003;43626;53.866;30.298;2022-12-07T01:46:00;38.2;31.4;18.6
57798;PMS7003;43626;53.866;30.298;2022-12-07T01:49:54;41.2;34.4;21.2
57798;PMS7003;43626;53.866;30.298;2022-12-07T01:54:40;43.2;35.8;21.2
57798;PMS7003;43626;53.866;30.298;2022-12-07T02:00:08;37.5;28.3;18
57798;PMS7003;43626;53.866;30.298;2022-12-07T02:05:08;34.2;27.2;17.4
57798;PMS7003;43626;53.866;30.298;2022-12-07T02:09:54;33.4;28;18.6
57798;PMS7003;43626;53.866;30.298;2022-12-07T02:14:40;42.8;34;20.4
57798;PMS7003;43626;53.866;30.298;2022-12-07T02:19:45;40;34.4;20.4
57798;PMS7003;43626;53.866;30.298;2022-12-07T02:25:05;38.2;31;19.8
57798;PMS7003;43626;53.866;30.298;2022-12-07T02:29:39;33.6;27.2;17.4
57798;PMS7003;43626;53.866;30.298;2022-12-07T02:34:54;26.4;21.6;14
57798;PMS7003;43626;53.866;30.298;2022-12-07T02:39:29;23.2;20.2;11.6
57798;PMS7003;43626;53.866;30.298;2022-12-07T02:44:28;23.4;19.4;11.8
57798;PMS7003;43626;53.866;30.298;2022-12-07T02:49:40;22.4;18;10.8
57798;PMS7003;43626;53.866;30.298;2022-12-07T02:54:50;16.8;13.6;8.6
57798;PMS7003;43626;53.866;30.298;2022-12-07T02:59:59;21;15;8.8
57798;PMS7003;43626;53.866;30.298;2022-12-07T03:04:33;16.4;13.4;9
57798;PMS7003;43626;53.866;30.298;2022-12-07T03:09:19;16.6;12.8;8.6
57798;PMS7003;43626;53.866;30.298;2022-12-07T03:15:05;16.2;14;9
57798;PMS7003;43626;53.866;30.298;2022-12-07T03:19:40;14.8;13;8
57798;PMS7003;43626;53.866;30.298;2022-12-07T03:24:19;22.4;15.4;9.2
57798;PMS7003;43626;53.866;30.298;2022-12-07T03:29:56;20.2;17.2;10.2
57798;PMS7003;43626;53.866;30.298;2022-12-07T03:34:29;24.4;18;10.2
57798;PMS7003;43626;53.866;30.298;2022-12-07T03:40:07;19;14.8;8.4
57798;PMS7003;43626;53.866;30.298;2022-12-07T03:44:40;20.8;17;12
57798;PMS7003;43626;53.866;30.298;2022-12-07T03:49:53;19.6;14.6;8.8
57798;PMS7003;43626;53.866;30.298;2022-12-07T03:54:19;20.4;15.8;9.6
57798;PMS7003;43626;53.866;30.298;2022-12-07T03:59:54;31.2;26.2;17.8
57798;PMS7003;43626;53.866;30.298;2022-12-07T04:04:54;44.3;36.8;22.3
57798;PMS7003;43626;53.866;30.298;2022-12-07T04:09:54;41.4;32.8;21.8
57798;PMS7003;43626;53.866;30.298;2022-12-07T04:14:38;42.4;34.4;22.2
57798;PMS7003;43626;53.866;30.298;2022-12-07T04:20:06;39;33;22
57798;PMS7003;43626;53.866;30.298;2022-12-07T04:24:30;36;29.8;18.6
57798;PMS7003;43626;53.866;30.298;2022-12-07T04:29:52;35.4;30.2;18.8
57798;PMS7003;43626;53.866;30.298;2022-12-07T04:34:38;42.2;34.8;21.4
57798;PMS7003;43626;53.866;30.298;2022-12-07T04:39:48;29.2;26.8;17
57798;PMS7003;43626;53.866;30.298;2022-12-07T04:44:38;28.2;23;15
57798;PMS7003;43626;53.866;30.298;2022-12-07T04:49:18;27.6;23.4;15.4
57798;PMS7003;43626;53.866;30.298;2022-12-07T04:54:40;37;31.2;19.6
57798;PMS7003;43626;53.866;30.298;2022-12-07T05:00:06;38.8;33.4;19.8
57798;PMS7003;43626;53.866;30.298;2022-12-07T05:05:08;53.8;41.3;26
57798;PMS7003;43626;53.866;30.298;2022-12-07T05:10:06;44.6;36.4;21.8
57798;PMS7003;43626;53.866;30.298;2022-12-07T05:14:19;38.6;32.6;19.4
57798;PMS7003;43626;53.866;30.298;2022-12-07T05:19:52;39.2;31;20
57798;PMS7003;43626;53.866;30.298;2022-12-07T05:24:52;41.2;32.4;19.2
57798;PMS7003;43626;53.866;30.298;2022-12-07T05:29:40;31.4;26.6;17.4
57798;PMS7003;43626;53.866;30.298;2022-12-07T05:35:04;37.2;31;20
57798;PMS7003;43626;53.866;30.298;2022-12-07T05:39:28;33.8;27.6;17.4
57798;PMS7003;43626;53.866;30.298;2022-12-07T05:44:52;35;28.4;18.2
57798;PMS7003;43626;53.866;30.298;2022-12-07T05:49:40;44.8;36.4;20.4
57798;PMS7003;43626;53.866;30.298;2022-12-07T05:55:04;45.4;33.2;20.4
57798;PMS7003;43626;53.866;30.298;2022-12-07T05:59:38;42.8;36.4;23
57798;PMS7003;43626;53.866;30.298;2022-12-07T06:04:37;44.3;35.3;22
57798;PMS7003;43626;53.866;30.298;2022-12-07T06:09:38;41;33.8;20.2
57798;PMS7003;43626;53.866;30.298;2022-12-07T06:14:58;35.2;29.4;18.6
57798;PMS7003;43626;53.866;30.298;2022-12-07T06:20:08;29.2;23.4;14.6
57798;PMS7003;43626;53.866;30.298;2022-12-07T06:25:08;27.4;22.4;14.4
57798;PMS7003;43626;53.866;30.298;2022-12-07T06:29:18;27.2;22.8;13.8
57798;PMS7003;43626;53.866;30.298;2022-12-07T06:34:52;25.4;22.6;13.4
57798;PMS7003;43626;53.866;30.298;2022-12-07T06:39:54;24.4;21.4;13.8
57798;PMS7003;43626;53.866;30.298;2022-12-07T06:44:38;27;23.2;14
57798;PMS7003;43626;53.866;30.298;2022-12-07T06:50:02;30.6;25.4;14.8
57798;PMS7003;43626;53.866;30.298;2022-12-07T06:54:38;26.6;21.2;13.4
57798;PMS7003;43626;53.866;30.298;2022-12-07T06:59:50;33.2;27;16.6
57798;PMS7003;43626;53.866;30.298;2022-12-07T07:04:28;34.5;30.3;18.5
57798;PMS7003;43626;53.866;30.298;2022-12-07T07:10:02;35.2;29.8;18.8
57798;PMS7003;43626;53.866;30.298;2022-12-07T07:14:38;30;24.2;15
57798;PMS7003;43626;53.866;30.298;2022-12-07T07:19:18;31.6;22.8;14.6
57798;PMS7003;43626;53.866;30.298;2022-12-07T07:24:28;28.4;23.4;14.8
57798;PMS7003;43626;53.866;30.298;2022-12-07T07:29:52;24;20;13.4
57798;PMS7003;43626;53.866;30.298;2022-12-07T07:35:04;31;23.2;14.4
57798;PMS7003;43626;53.866;30.298;2022-12-07T07:40:02;23.6;18.6;12.2
57798;PMS7003;43626;53.866;30.298;2022-12-07T07:44:28;29.8;23.2;14.8
57798;PMS7003;43626;53.866;30.298;2022-12-07T07:49:52;30.6;23.2;14.2
57798;PMS7003;43626;53.866;30.298;2022-12-07T07:54:52;24.8;22.6;13.6
57798;PMS7003;43626;53.866;30.298;2022-12-07T07:59:40;26.4;22.2;15
57798;PMS7003;43626;53.866;30.298;2022-12-07T08:05:07;31.8;24;14.8
57798;PMS7003;43626;53.866;30.298;2022-12-07T08:09:38;33.8;28.5;17
57798;PMS7003;43626;53.866;30.298;2022-12-07T08:14:48;37.4;29.6;17.6
57798;PMS7003;43626;53.866;30.298;2022-12-07T08:19:38;34.4;30.8;18.4
57798;PMS7003;43626;53.866;30.298;2022-12-07T08:25:06;42;33.4;20.8
57798;PMS7003;43626;53.866;30.298;2022-12-07T08:29:38;37.8;33.8;20
57798;PMS7003;43626;53.866;30.298;2022-12-07T08:34:28;35.2;27.4;17.6
57798;PMS7003;43626;53.866;30.298;2022-12-07T08:39:40;28.4;22.2;13.4
57798;PMS7003;43626;53.866;30.298;2022-12-07T08:45:06;37.4;32.2;20.2
57798;PMS7003;43626;53.866;30.298;2022-12-07T08:50:06;29.6;25.6;15.2
57798;PMS7003;43626;53.866;30.298;2022-12-07T08:55:07;30.2;24;15.6
57798;PMS7003;43626;53.866;30.298;2022-12-07T08:59:30;24.6;21.8;14.2
57798;PMS7003;43626;53.866;30.298;2022-12-07T09:04:52;31.2;26.4;15.8
57798;PMS7003;43626;53.866;30.298;2022-12-07T09:09:52;30.5;27;17.3
57798;PMS7003;43626;53.866;30.298;2022-12-07T09:14:38;26;21.8;14.6
57798;PMS7003;43626;53.866;30.298;2022-12-07T09:20:02;28;24.6;14.8
57798;PMS7003;43626;53.866;30.298;2022-12-07T09:24:18;32.8;28.2;17.2
57798;PMS7003;43626;53.866;30.298;2022-12-07T09:29:54;28.6;23.6;15.8
57798;PMS7003;43626;53.866;30.298;2022-12-07T09:34:38;30.6;25.8;14.8
57798;PMS7003;43626;53.866;30.298;2022-12-07T09:39:50;33;26.2;15.8
57798;PMS7003;43626;53.866;30.298;2022-12-07T09:44:39;30;26;16.4
57798;PMS7003;43626;53.866;30.298;2022-12-07T09:49:29;31.6;23.6;13.6
57798;PMS7003;43626;53.866;30.298;2022-12-07T09:54:41;28;25.2;17
57798;PMS7003;43626;53.866;30.298;2022-12-07T10:00:06;27;22.6;14.2
57798;PMS7003;43626;53.866;30.298;2022-12-07T10:05:07;33.4;27;17
57798;PMS7003;43626;53.866;30.298;2022-12-07T10:10:06;28.8;24.3;15
57798;PMS7003;43626;53.866;30.298;2022-12-07T10:14:18;34.2;29.6;17.4
57798;PMS7003;43626;53.866;30.298;2022-12-07T10:19:52;38.2;29.4;17.8
57798;PMS7003;43626;53.866;30.298;2022-12-07T10:24:52;38.8;30.8;20.2
57798;PMS7003;43626;53.866;30.298;2022-12-07T10:29:40;30;24.2;15.6
57798;PMS7003;43626;53.866;30.298;2022-12-07T10:35:26;27.8;21.6;13.6
57798;PMS7003;43626;53.866;30.298;2022-12-07T10:39:41;25;21.6;14
57798;PMS7003;43626;53.866;30.298;2022-12-07T10:49:55;26.2;23.2;14
57798;PMS7003;43626;53.866;30.298;2022-12-07T10:55:08;33.2;26.4;17.2
57798;PMS7003;43626;53.866;30.298;2022-12-07T10:59:23;34.2;26.4;15.8
57798;PMS7003;43626;53.866;30.298;2022-12-07T11:04:30;30.6;25.2;16.6
57798;PMS7003;43626;53.866;30.298;2022-12-07T11:09:43;37.3;31.5;18.3
57798;PMS7003;43626;53.866;30.298;2022-12-07T11:15:04;30.8;26.2;16
57798;PMS7003;43626;53.866;30.298;2022-12-07T11:20:06;29;23.2;14
57798;PMS7003;43626;53.866;30.298;2022-12-07T11:25:13;26.2;22.4;13.8
57798;PMS7003;43626;53.866;30.298;2022-12-07T11:29:22;23.4;20.4;13
57798;PMS7003;43626;53.866;30.298;2022-12-07T11:34:54;30.4;24.8;15.2
57798;PMS7003;43626;53.866;30.298;2022-12-07T11:39:54;28.6;24.6;15.8
57798;PMS7003;43626;53.866;30.298;2022-12-07T11:44:39;30.2;24.4;14.4
57798;PMS7003;43626;53.866;30.298;2022-12-07T11:50:09;31.6;26.8;16
57798;PMS7003;43626;53.866;30.298;2022-12-07T11:54:29;29.8;23.2;15.6
57798;PMS7003;43626;53.866;30.298;2022-12-07T11:59:53;32.2;27.4;18
57798;PMS7003;43626;53.866;30.298;2022-12-07T12:04:29;41.2;34.8;20.8
57798;PMS7003;43626;53.866;30.298;2022-12-07T12:10:04;35;28.4;16.8
57798;PMS7003;43626;53.866;30.298;2022-12-07T12:14:42;41;35;21.8
57798;PMS7003;43626;53.866;30.298;2022-12-07T12:19:22;36.6;32;20.8
57798;PMS7003;43626;53.866;30.298;2022-12-07T12:24:19;51;39;24.8
57798;PMS7003;43626;53.866;30.298;2022-12-07T12:30:04;51;41.6;25.2
57798;PMS7003;43626;53.866;30.298;2022-12-07T12:35:22;52.2;40.4;25.8
57798;PMS7003;43626;53.866;30.298;2022-12-07T12:40:43;42.4;37.8;24.6
57798;PMS7003;43626;53.866;30.298;2022-12-07T12:44:40;44.6;38.6;23.6
57798;PMS7003;43626;53.866;30.298;2022-12-07T12:50:10;49;40.4;25
57798;PMS7003;43626;53.866;30.298;2022-12-07T12:54:57;44.6;37.4;23.4
57798;PMS7003;43626;53.866;30.298;2022-12-07T12:59:40;44.4;36;23.6
57798;PMS7003;43626;53.866;30.298;2022-12-07T13:05:14;33.8;29.8;19
57798;PMS7003;43626;53.866;30.298;2022-12-07T13:09:20;45.2;37.4;23
57798;PMS7003;43626;53.866;30.298;2022-12-07T13:15:19;54.5;42.8;26.8
57798;PMS7003;43626;53.866;30.298;2022-12-07T13:24:54;40.6;35.8;23.4
57798;PMS7003;43626;53.866;30.298;2022-12-07T13:29:38;42.8;34.6;22.2
57798;PMS7003;43626;53.866;30.298;2022-12-07T13:34:28;44.8;36.8;23.6
57798;PMS7003;43626;53.866;30.298;2022-12-07T13:39:51;49.4;39.8;24.4
57798;PMS7003;43626;53.866;30.298;2022-12-07T13:44:56;47.2;39.4;25
57798;PMS7003;43626;53.866;30.298;2022-12-07T13:49:46;41.8;34.2;22
57798;PMS7003;43626;53.866;30.298;2022-12-07T13:55:11;45;36.8;22.4
57798;PMS7003;43626;53.866;30.298;2022-12-07T13:59:28;50.4;39.8;25.4
57798;PMS7003;43626;53.866;30.298;2022-12-07T14:04:51;43.8;37.4;23.4
57798;PMS7003;43626;53.866;30.298;2022-12-07T14:09:40;48.6;39.2;24.6
57798;PMS7003;43626;53.866;30.298;2022-12-07T14:14:51;45.3;36.5;25
57798;PMS7003;43626;53.866;30.298;2022-12-07T14:19:57;43.4;35.6;22.8
57798;PMS7003;43626;53.866;30.298;2022-12-07T14:24:30;45.4;39.2;25
57798;PMS7003;43626;53.866;30.298;2022-12-07T14:30:05;44.6;36.6;24.4
57798;PMS7003;43626;53.866;30.298;2022-12-07T14:34:38;49.4;38.4;24.6
57798;PMS7003;43626;53.866;30.298;2022-12-07T14:39:21;44;38.2;23.6
57798;PMS7003;43626;53.866;30.298;2022-12-07T14:44:38;42.8;36.2;21.8
57798;PMS7003;43626;53.866;30.298;2022-12-07T14:49:19;43.6;37.6;23
57798;PMS7003;43626;53.866;30.298;2022-12-07T14:54:39;42;35.4;22.2
57798;PMS7003;43626;53.866;30.298;2022-12-07T14:59:52;39.8;35;21.4
57798;PMS7003;43626;53.866;30.298;2022-12-07T15:04:43;53.6;42.6;27.4
57798;PMS7003;43626;53.866;30.298;2022-12-07T15:10:05;47.4;37.4;22.6
57798;PMS7003;43626;53.866;30.298;2022-12-07T15:14:28;40.3;31.8;19.8
57798;PMS7003;43626;53.866;30.298;2022-12-07T15:19:52;39.4;34.4;22
57798;PMS7003;43626;53.866;30.298;2022-12-07T15:25:05;43.8;36.6;23.6
57798;PMS7003;43626;53.866;30.298;2022-12-07T15:29:54;47.2;38;25
57798;PMS7003;43626;53.866;30.298;2022-12-07T15:35:07;47;38.8;24.8
57798;PMS7003;43626;53.866;30.298;2022-12-07T15:39:39;48.6;39.2;24.8
57798;PMS7003;43626;53.866;30.298;2022-12-07T15:45:05;43.4;36.6;22
57798;PMS7003;43626;53.866;30.298;2022-12-07T15:49:19;46.2;38.4;24.4
57798;PMS7003;43626;53.866;30.298;2022-12-07T15:54:55;47.4;38.8;24
57798;PMS7003;43626;53.866;30.298;2022-12-07T15:59:54;40.8;34;22.4
57798;PMS7003;43626;53.866;30.298;2022-12-07T16:04:19;41.8;34.2;21.4
57798;PMS7003;43626;53.866;30.298;2022-12-07T16:09:41;44.8;34.2;20.2
57798;PMS7003;43626;53.866;30.298;2022-12-07T16:14:51;39.5;32.5;19.8
57798;PMS7003;43626;53.866;30.298;2022-12-07T16:19:19;43.2;36;21.8
57798;PMS7003;43626;53.866;30.298;2022-12-07T16:25:07;52.6;41;26.4
57798;PMS7003;43626;53.866;30.298;2022-12-07T16:29:20;46.8;38;24.4
57798;PMS7003;43626;53.866;30.298;2022-12-07T16:34:53;54;42.4;26.8
57798;PMS7003;43626;53.866;30.298;2022-12-07T16:39:21;57.4;42.6;25.8
57798;PMS7003;43626;53.866;30.298;2022-12-07T16:44:49;52.6;41.6;26
57798;PMS7003;43626;53.866;30.298;2022-12-07T16:50:07;53.6;41.6;25.4
57798;PMS7003;43626;53.866;30.298;2022-12-07T16:54:19;53.6;40.4;25.2
57798;PMS7003;43626;53.866;30.298;2022-12-07T17:00:07;53.4;41.4;25.8
57798;PMS7003;43626;53.866;30.298;2022-12-07T17:04:29;49.6;40;25.4
57798;PMS7003;43626;53.866;30.298;2022-12-07T17:09:52;50.4;40;24.8
57798;PMS7003;43626;53.866;30.298;2022-12-07T17:14:19;40.2;32.2;20.6
57798;PMS7003;43626;53.866;30.298;2022-12-07T17:19:53;40.5;32.8;19.8
57798;PMS7003;43626;53.866;30.298;2022-12-07T17:24:39;36.4;30.6;17.6
57798;PMS7003;43626;53.866;30.298;2022-12-07T17:29:53;35.4;27;16.6
57798;PMS7003;43626;53.866;30.298;2022-12-07T17:34:39;32.2;27.2;16.4
57798;PMS7003;43626;53.866;30.298;2022-12-07T17:40:07;37.2;30.8;17.4
57798;PMS7003;43626;53.866;30.298;2022-12-07T17:44:30;37.4;32.4;21.2
57798;PMS7003;43626;53.866;30.298;2022-12-07T17:50:05;45.8;36.8;22.6
57798;PMS7003;43626;53.866;30.298;2022-12-07T17:54:41;39.2;32.4;20.4
57798;PMS7003;43626;53.866;30.298;2022-12-07T17:59:51;32;27.4;16.8
57798;PMS7003;43626;53.866;30.298;2022-12-07T18:04:53;31.8;27;15.8
57798;PMS7003;43626;53.866;30.298;2022-12-07T18:09:43;33;27.6;15
57798;PMS7003;43626;53.866;30.298;2022-12-07T18:15:03;31;26.2;15.8
57798;PMS7003;43626;53.866;30.298;2022-12-07T18:20:05;37;29.8;17
57798;PMS7003;43626;53.866;30.298;2022-12-07T18:24:45;37;29.8;17
57798;PMS7003;43626;53.866;30.298;2022-12-07T18:29:41;31.8;27.4;16.2
57798;PMS7003;43626;53.866;30.298;2022-12-07T18:34:19;33.6;27;16
57798;PMS7003;43626;53.866;30.298;2022-12-07T18:39:53;33.8;27.6;15.6
57798;PMS7003;43626;53.866;30.298;2022-12-07T18:45:05;29.8;27.6;16
57798;PMS7003;43626;53.866;30.298;2022-12-07T18:49:39;30.8;26.4;15.4
57798;PMS7003;43626;53.866;30.298;2022-12-07T18:55:05;35.2;29;17.4
57798;PMS7003;43626;53.866;30.298;2022-12-07T18:59:43;32.6;28;16.6
57798;PMS7003;43626;53.866;30.298;2022-12-07T19:05:08;33.6;29;17.2
57798;PMS7003;43626;53.866;30.298;2022-12-07T19:09:41;33.6;30.6;17.4
57798;PMS7003;43626;53.866;30.298;2022-12-07T19:14:51;32.2;27.6;17.2
57798;PMS7003;43626;53.866;30.298;2022-12-07T19:20:03;33;27.3;16
57798;PMS7003;43626;53.866;30.298;2022-12-07T19:24:29;36.2;28.4;16
57798;PMS7003;43626;53.866;30.298;2022-12-07T19:30:07;35.2;26.8;15.4
57798;PMS7003;43626;53.866;30.298;2022-12-07T19:35:07;36.4;28.6;17
57798;PMS7003;43626;53.866;30.298;2022-12-07T19:39:53;35.8;29.4;17.2
57798;PMS7003;43626;53.866;30.298;2022-12-07T19:44:41;36.2;30;17.2
57798;PMS7003;43626;53.866;30.298;2022-12-07T19:49:19;34.2;29.4;17.2
57798;PMS7003;43626;53.866;30.298;2022-12-07T19:54:39;37.2;27.8;15.6
57798;PMS7003;43626;53.866;30.298;2022-12-07T20:00:05;35;30.8;17
57798;PMS7003;43626;53.866;30.298;2022-12-07T20:04:41;36.8;31;18.6
57798;PMS7003;43626;53.866;30.298;2022-12-07T20:10:07;44;32.6;18.4
57798;PMS7003;43626;53.866;30.298;2022-12-07T20:14:39;37.8;28;16.2
57798;PMS7003;43626;53.866;30.298;2022-12-07T20:20:05;42.8;30.5;18.3
57798;PMS7003;43626;53.866;30.298;2022-12-07T20:24:29;36;29.6;16
57798;PMS7003;43626;53.866;30.298;2022-12-07T20:29:51;38.8;31.6;18
57798;PMS7003;43626;53.866;30.298;2022-12-07T20:34:51;35;29;18.4
57798;PMS7003;43626;53.866;30.298;2022-12-07T20:39:39;37.6;29;16.4
57798;PMS7003;43626;53.866;30.298;2022-12-07T20:45:05;33.4;25.4;15
57798;PMS7003;43626;53.866;30.298;2022-12-07T20:50:05;34.4;28.6;17
57798;PMS7003;43626;53.866;30.298;2022-12-07T20:54:51;36;26.8;15.8
57798;PMS7003;43626;53.866;30.298;2022-12-07T20:59:39;33.4;28;16.4
57798;PMS7003;43626;53.866;30.298;2022-12-07T21:04:29;33.2;28.2;16.8
57798;PMS7003;43626;53.866;30.298;2022-12-07T21:09:53;35.4;26.6;16.2
57798;PMS7003;43626;53.866;30.298;2022-12-07T21:15:07;32;27.2;16.4
57798;PMS7003;43626;53.866;30.298;2022-12-07T21:19:43;37.5;29.5;16.8
57798;PMS7003;43626;53.866;30.298;2022-12-07T21:25:07;38.8;29;16.8
57798;PMS7003;43626;53.866;30.298;2022-12-07T21:29:19;34.4;27.8;16.8
57798;PMS7003;43626;53.866;30.298;2022-12-07T21:35:05;32.2;26.4;16.2
57798;PMS7003;43626;53.866;30.298;2022-12-07T21:39:41;30;25.6;15.2
57798;PMS7003;43626;53.866;30.298;2022-12-07T21:44:49;33;27;16.8
57798;PMS7003;43626;53.866;30.298;2022-12-07T21:49:49;32.2;28.4;15.4
57798;PMS7003;43626;53.866;30.298;2022-12-07T21:54:41;30.2;26;14.8
57798;PMS7003;43626;53.866;30.298;2022-12-07T21:59:19;33.4;27.6;15.4
57798;PMS7003;43626;53.866;30.298;2022-12-07T22:05:03;32.8;28.6;16.4
57798;PMS7003;43626;53.866;30.298;2022-12-07T22:10:01;32.6;26.8;16
57798;PMS7003;43626;53.866;30.298;2022-12-07T22:14:33;30;26.6;15.8
57798;PMS7003;43626;53.866;30.298;2022-12-07T22:19:19;30.8;25.4;14.6
57798;PMS7003;43626;53.866;30.298;2022-12-07T22:24:19;33.5;26.8;16.8
57798;PMS7003;43626;53.866;30.298;2022-12-07T22:30:01;33.6;27;16
57798;PMS7003;43626;53.866;30.298;2022-12-07T22:34:25;35.2;27.6;16.8
57798;PMS7003;43626;53.866;30.298;2022-12-07T22:39:51;35;28.2;16.6
57798;PMS7003;43626;53.866;30.298;2022-12-07T22:44:19;31;26;15
57798;PMS7003;43626;53.866;30.298;2022-12-07T22:49:51;34.2;29.2;16.8
57798;PMS7003;43626;53.866;30.298;2022-12-07T22:54:37;31.4;27.8;16.4
57798;PMS7003;43626;53.866;30.298;2022-12-07T22:59:49;36.8;29.4;16.4
57798;PMS7003;43626;53.866;30.298;2022-12-07T23:04:47;34;29;16.2
57798;PMS7003;43626;53.866;30.298;2022-12-07T23:09:35;32.6;28;17
57798;PMS7003;43626;53.866;30.298;2022-12-07T23:14:20;35;28.6;16.4
57798;PMS7003;43626;53.866;30.298;2022-12-07T23:20:01;30.8;26.4;16.2
57798;PMS7003;43626;53.866;30.298;2022-12-07T23:24:59;28.5;26;15.3
57798;PMS7003;43626;53.866;30.298;2022-12-07T23:29:35;34;28.2;17.2
57798;PMS7003;43626;53.866;30.298;2022-12-07T23:34:27;33.8;28;16.4
57798;PMS7003;43626;53.866;30.298;2022-12-07T23:39:27;34.8;28.6;17
57798;PMS7003;43626;53.866;30.298;2022-12-07T23:45:01;35.8;29;16.4
57798;PMS7003;43626;53.866;30.298;2022-12-07T23:49:35;31.2;25.4;14.4
57798;PMS7003;43626;53.866;30.298;2022-12-07T23:54:49;36.6;29.6;17.8
57798;PMS7003;43626;53.866;30.298;2022-12-07T23:59:19;33.4;27.2;16.4
